createdAt,value
2023-03-22T00:01:59.421Z,100607.89
2023-03-22T00:06:59.427Z,100602.29000000001
2023-03-22T00:11:59.327Z,100601.47
2023-03-22T00:16:59.295Z,100591.35
2023-03-22T00:22:00.236Z,100584.92
2023-03-22T00:26:59.964Z,100583.06
2023-03-22T00:31:59.128Z,100581.58
2023-03-22T00:36:59.072Z,100582.47
2023-03-22T00:41:59.382Z,100578.31
2023-03-22T00:46:59.216Z,100582.81
2023-03-22T00:51:59.160Z,100583.01
2023-03-22T00:53:35.401Z,100576.48000000001
2023-03-22T00:56:59.045Z,100576.48000000001
2023-03-22T01:01:58.981Z,100568.76999999999
2023-03-22T01:07:01.015Z,100557.0
2023-03-22T01:12:00.915Z,100555.59
2023-03-22T01:16:59.347Z,100557.19
2023-03-22T01:21:59.400Z,100553.34
2023-03-22T01:26:58.977Z,100549.67
2023-03-22T01:31:58.940Z,100547.78
2023-03-22T01:36:59.323Z,100553.35
2023-03-22T01:42:01.235Z,100546.98
2023-03-22T01:46:58.896Z,100542.25
2023-03-22T01:52:03.020Z,100536.22
2023-03-22T01:56:59.549Z,100539.12
2023-03-22T02:01:59.387Z,100531.72
2023-03-22T02:07:08.531Z,100531.59000000001
2023-03-22T02:12:12.335Z,100529.97
2023-03-22T02:17:11.783Z,100524.2
2023-03-22T02:22:20.905Z,100520.01000000001
2023-03-22T02:27:18.673Z,100516.65000000001
2023-03-22T02:32:18.718Z,100509.95
2023-03-22T02:37:11.689Z,100516.90999999999
2023-03-22T02:42:15.665Z,100515.63
2023-03-22T02:47:03.434Z,100515.20000000001
2023-03-22T02:52:02.809Z,100505.98999999999
2023-03-22T02:57:04.337Z,100506.12999999999
2023-03-22T03:02:02.684Z,100499.1
2023-03-22T03:07:04.134Z,100498.6
2023-03-22T03:11:59.070Z,100491.18999999999
2023-03-22T03:17:09.704Z,100494.05
2023-03-22T03:22:12.100Z,100494.76
2023-03-22T03:27:04.001Z,100496.36
2023-03-22T03:32:05.740Z,100494.70999999999
2023-03-22T03:37:03.995Z,100492.6
2023-03-22T03:42:01.682Z,100487.37999999999
2023-03-22T03:44:55.181Z,100489.31
2023-03-22T03:46:58.955Z,100489.31
2023-03-22T03:51:59.423Z,100483.77
2023-03-22T03:57:01.655Z,100485.46
2023-03-22T04:01:59.446Z,100486.49
2023-03-22T04:07:01.347Z,100482.92
2023-03-22T04:11:59.701Z,100483.83
2023-03-22T04:16:58.805Z,100484.01
2023-03-22T04:21:59.386Z,100484.53
2023-03-22T04:26:58.745Z,100482.09000000001
2023-03-22T04:31:58.808Z,100484.86
2023-03-22T04:37:01.619Z,100480.55
2023-03-22T04:41:58.816Z,100474.95
2023-03-22T04:46:58.789Z,100478.91
2023-03-22T04:52:00.298Z,100482.31
2023-03-22T04:57:00.016Z,100486.05
2023-03-22T05:01:59.062Z,100491.66
2023-03-22T05:06:59.091Z,100488.75
2023-03-22T05:11:58.918Z,100493.53
2023-03-22T05:16:58.847Z,100493.66
2023-03-22T05:20:53.702Z,100491.69
2023-03-22T05:22:01.052Z,100491.69
2023-03-22T05:27:00.040Z,100486.83
2023-03-22T05:31:59.247Z,100488.19
2023-03-22T05:36:59.886Z,100488.33
2023-03-22T05:41:58.687Z,100486.29
2023-03-22T05:46:59.193Z,100492.07
2023-03-22T05:51:58.723Z,100496.31000000001
2023-03-22T05:55:49.264Z,100494.68000000001
2023-03-22T05:56:58.665Z,100494.68000000001
2023-03-22T06:01:59.225Z,100500.37
2023-03-22T06:06:58.760Z,100504.57
2023-03-22T06:11:58.696Z,100504.14
2023-03-22T06:16:58.987Z,100496.98
2023-03-22T06:21:58.763Z,100499.25
2023-03-22T06:26:58.819Z,100497.94
2023-03-22T06:31:59.647Z,100496.48
2023-03-22T06:36:58.764Z,100493.36
2023-03-22T06:38:32.458Z,100491.02
2023-03-22T06:41:58.750Z,100491.02
2023-03-22T06:46:58.906Z,100486.06999999999
2023-03-22T06:51:58.705Z,100483.29
2023-03-22T06:56:58.750Z,100474.63
2023-03-22T07:01:59.207Z,100462.59999999999
2023-03-22T07:06:58.628Z,100463.81
2023-03-22T07:11:58.727Z,100456.07
2023-03-22T07:16:59.251Z,100448.69
2023-03-22T07:21:58.598Z,100450.75
2023-03-22T07:26:58.613Z,100439.72
2023-03-22T07:31:59.309Z,100429.26999999999
2023-03-22T07:36:58.612Z,100433.8
2023-03-22T07:41:58.773Z,100416.52
2023-03-22T07:47:08.640Z,100410.55
2023-03-22T07:51:58.733Z,100407.11
2023-03-22T07:56:58.798Z,100405.76999999999
2023-03-22T08:01:59.147Z,100420.84
2023-03-22T08:06:59.115Z,100407.4
2023-03-22T08:11:58.582Z,100407.23000000001
2023-03-22T08:16:58.836Z,100403.31
2023-03-22T08:21:58.688Z,100409.25
2023-03-22T08:26:58.814Z,100392.79000000001
2023-03-22T08:32:01.347Z,100387.61
2023-03-22T08:36:58.607Z,100381.73000000001
2023-03-22T08:41:59.258Z,100385.0
2023-03-22T08:46:58.818Z,100394.28
2023-03-22T08:51:58.684Z,100388.39
2023-03-22T08:56:59.009Z,100374.83
2023-03-22T09:01:59.027Z,100376.31999999999
2023-03-22T09:06:58.746Z,100387.06
2023-03-22T09:11:58.719Z,100379.28
2023-03-22T09:16:58.926Z,100378.45
2023-03-22T09:21:58.553Z,100384.44
2023-03-22T09:26:58.693Z,100373.81
2023-03-22T09:31:58.809Z,100374.94
2023-03-22T09:37:01.293Z,100361.54000000001
2023-03-22T09:42:01.985Z,100355.97
2023-03-22T09:47:01.199Z,100347.29999999999
2023-03-22T09:51:58.803Z,100351.45
2023-03-22T09:57:03.324Z,100346.11
2023-03-22T10:02:01.846Z,100336.31
2023-03-22T10:07:06.115Z,100329.13
2023-03-22T10:10:16.852Z,100340.79000000001
2023-03-22T10:12:04.442Z,100340.79000000001
2023-03-22T10:17:04.802Z,100334.7
2023-03-22T10:22:01.552Z,100346.98
2023-03-22T10:26:58.741Z,100337.77
2023-03-22T10:32:12.873Z,100333.58
2023-03-22T10:37:03.102Z,100333.48
2023-03-22T10:42:02.407Z,100335.64
2023-03-22T10:47:06.259Z,100334.13
2023-03-22T10:52:02.896Z,100327.06
2023-03-22T10:56:58.573Z,100324.51
2023-03-22T11:02:01.040Z,100324.01999999999
2023-03-22T11:06:58.693Z,100312.86
2023-03-22T11:11:59.986Z,100316.08
2023-03-22T11:17:00.452Z,100299.89
2023-03-22T11:21:59.472Z,100302.36
2023-03-22T11:27:04.623Z,100301.81
2023-03-22T11:31:59.679Z,100297.92
2023-03-22T11:36:59.937Z,100298.5
2023-03-22T11:42:02.861Z,100295.34
2023-03-22T11:47:01.101Z,100289.12
2023-03-22T11:52:07.749Z,100284.22
2023-03-22T11:57:03.231Z,100266.08
2023-03-22T12:02:05.690Z,100265.99
2023-03-22T12:07:02.774Z,100250.71
2023-03-22T12:12:01.350Z,100245.67
2023-03-22T12:17:04.551Z,100239.07
2023-03-22T12:21:58.790Z,100233.13
2023-03-22T12:27:04.151Z,100224.54000000001
2023-03-22T12:32:02.458Z,100224.41
2023-03-22T12:37:02.461Z,100212.19
2023-03-22T12:42:02.987Z,100217.95
2023-03-22T12:47:05.425Z,100204.6
2023-03-22T12:52:10.743Z,100204.78
2023-03-22T12:56:58.504Z,100203.63
2023-03-22T13:02:05.363Z,100200.57
2023-03-22T13:07:09.189Z,100203.22
2023-03-22T13:12:18.367Z,100187.11
2023-03-22T13:16:59.663Z,100183.5
2023-03-22T13:22:18.323Z,100182.95000000001
2023-03-22T13:26:58.447Z,100176.73
2023-03-22T13:32:01.013Z,100171.23
2023-03-22T13:37:08.684Z,100172.05
2023-03-22T13:42:06.283Z,100175.69
2023-03-22T13:47:00.960Z,100172.66
2023-03-22T13:52:01.110Z,100169.81
2023-03-22T13:57:00.447Z,100162.42
2023-03-22T14:02:03.793Z,100156.16
2023-03-22T14:07:06.065Z,100157.37000000001
2023-03-22T14:12:04.490Z,100157.12
2023-03-22T14:17:03.964Z,100161.73999999999
2023-03-22T14:57:00.564Z,100129.13
2023-03-22T15:02:05.361Z,100123.22
2023-03-22T15:07:01.150Z,100121.33
2023-03-22T15:12:01.026Z,100116.49
2023-03-22T15:16:59.918Z,100105.98
2023-03-22T15:22:03.101Z,100102.48
2023-03-22T15:27:01.045Z,100099.81
2023-03-22T15:32:01.653Z,100102.62
2023-03-22T15:37:00.678Z,100100.62000000001
2023-03-22T15:42:11.132Z,100099.01
2023-03-22T15:47:00.295Z,100100.37
2023-03-22T15:52:08.624Z,100085.33
2023-03-22T15:57:08.482Z,100072.75
2023-03-22T16:02:00.293Z,100080.92
2023-03-22T16:06:58.354Z,100081.25
2023-03-22T16:11:58.717Z,100075.98000000001
2023-03-22T16:16:58.453Z,100071.75
2023-03-22T16:21:58.367Z,100069.72
2023-03-22T16:26:58.606Z,100064.62
2023-03-22T16:31:58.251Z,100060.20999999999
2023-03-22T16:36:58.303Z,100065.45
2023-03-22T16:41:58.612Z,100067.86
2023-03-22T16:46:59.386Z,100065.84
2023-03-22T16:51:58.238Z,100062.81
2023-03-22T16:56:58.847Z,100073.08
2023-03-22T17:01:58.300Z,100066.88
2023-03-22T17:06:58.233Z,100065.61
2023-03-22T17:11:58.804Z,100068.24
2023-03-22T17:16:58.233Z,100073.47
2023-03-22T17:21:58.838Z,100076.9
2023-03-22T17:26:58.968Z,100078.25
2023-03-22T17:32:04.182Z,100081.22
2023-03-22T17:36:58.814Z,100081.25
2023-03-22T17:41:58.723Z,100083.95000000001
2023-03-22T17:51:58.578Z,100086.03
2023-03-22T17:57:32.931Z,100084.22
2023-03-22T18:01:59.745Z,100078.86
2023-03-22T18:06:58.188Z,100082.78
2023-03-22T18:11:58.547Z,100081.64
2023-03-22T18:16:58.323Z,100080.1
2023-03-22T18:21:58.379Z,100078.5
2023-03-22T18:32:06.047Z,100085.12
2023-03-22T18:36:59.140Z,100087.5
2023-03-22T18:42:08.640Z,100086.32
2023-03-22T18:46:58.437Z,100078.73
2023-03-22T18:52:36.081Z,100080.35
2023-03-22T18:56:59.408Z,100078.95999999999
2023-03-22T19:02:09.965Z,100074.27
2023-03-22T19:07:00.911Z,100071.09
2023-03-22T19:11:58.543Z,100063.22
2023-03-22T19:16:58.215Z,100054.33
2023-03-22T19:21:58.226Z,100051.42
2023-03-22T19:27:16.223Z,100046.82
2023-03-22T19:31:58.864Z,100042.48999999999
2023-03-22T19:36:58.373Z,100046.45000000001
2023-03-22T19:42:06.534Z,100040.67
2023-03-22T19:51:59.139Z,100043.03
2023-03-22T19:56:58.740Z,100048.56
2023-03-22T20:01:59.201Z,100038.89
2023-03-22T20:06:58.628Z,100042.81
2023-03-22T20:11:58.644Z,100043.84
2023-03-22T20:17:05.547Z,100042.40999999999
2023-03-22T20:21:58.238Z,100039.23999999999
2023-03-22T20:26:58.309Z,100035.11
2023-03-22T20:31:58.317Z,100031.6
2023-03-22T20:36:58.251Z,100024.1
2023-03-22T20:42:02.254Z,100029.26999999999
2023-03-22T20:46:36.310Z,100021.51
2023-03-22T20:46:58.077Z,100021.51
2023-03-22T20:51:58.292Z,100022.03
2023-03-22T20:56:58.754Z,100019.45
2023-03-22T21:01:58.276Z,100012.95
2023-03-22T21:06:58.108Z,100014.64
2023-03-22T21:11:58.370Z,100006.02
2023-03-22T21:16:58.096Z,99996.0
2023-03-22T21:22:04.925Z,100000.44
2023-03-22T21:26:58.313Z,99999.77
2023-03-22T21:31:58.070Z,99997.47
2023-03-22T21:36:58.362Z,99993.61
2023-03-22T21:37:08.740Z,99993.61
2023-03-22T21:42:01.249Z,99998.13
2023-03-22T21:46:58.920Z,99995.54000000001
2023-03-22T21:52:02.357Z,99997.6
2023-03-22T21:56:58.970Z,99995.92
2023-03-22T22:01:58.394Z,99992.44
2023-03-22T22:07:00.450Z,99993.29000000001
2023-03-22T22:11:58.152Z,99989.79000000001
2023-03-22T22:16:58.416Z,99984.88
2023-03-22T22:21:58.138Z,99980.69
2023-03-22T22:26:58.068Z,99980.81
2023-03-22T22:31:58.716Z,99980.69
2023-03-22T22:36:58.009Z,99979.58
2023-03-22T22:39:14.249Z,99977.51
2023-03-22T22:41:59.280Z,99977.51
2023-03-22T22:46:58.321Z,99978.19
2023-03-22T22:51:58.104Z,99973.05
2023-03-22T22:56:58.177Z,99968.03
2023-03-22T23:01:58.446Z,99963.67
2023-03-22T23:06:57.991Z,99954.36
2023-03-22T23:11:58.206Z,99955.55
2023-03-22T23:16:58.479Z,99956.58
2023-03-22T23:22:02.248Z,99956.34
2023-03-22T23:26:59.576Z,99949.92
2023-03-22T23:32:00.674Z,99944.58
2023-03-22T23:36:57.991Z,99942.5
2023-03-22T23:41:58.100Z,99940.62
2023-03-22T23:46:58.254Z,99937.92
2023-03-22T23:51:58.158Z,99936.14
2023-03-22T23:56:58.151Z,99929.21
